Time;durP1;ratioP1;P1;durP2;ratioP2;P2;SDS_P1;SDS_P2;PMS_P1;PMS_P2;Temp;Humidity;BMP_temperature;BMP_pressure;BME280_temperature;BME280_humidity;BME280_pressure;Samples;Min_cycle;Max_cycle;Signal;HPM_P1;HPM_P2
2021/09/01 00:00:19;;;;;;;2.40;2.20;;;10.50;99.90;10.40;97122.00;;;;4949275;29;20212;-71
2021/09/01 00:03:08;;;;;;;2.47;2.20;;;10.60;99.90;10.60;97135.00;;;;4967461;28;20227;-71
2021/09/01 00:05:57;;;;;;;2.57;1.93;;;10.60;99.90;10.70;97137.00;;;;4968231;28;20218;-71
2021/09/01 00:08:46;;;;;;;3.50;2.27;;;10.60;99.90;10.60;97135.00;;;;4967746;28;20227;-71
2021/09/01 00:11:35;;;;;;;3.40;2.80;;;10.70;99.90;10.50;97124.00;;;;4966637;28;20675;-70
2021/09/01 00:14:25;;;;;;;3.60;2.17;;;10.60;99.90;10.30;97132.00;;;;4966445;28;20694;-71
2021/09/01 00:17:15;;;;;;;3.10;2.40;;;10.60;99.90;10.20;97136.00;;;;4966983;28;20790;-71
2021/09/01 00:20:08;;;;;;;2.53;2.30;;;10.50;99.90;10.30;97132.00;;;;4967583;28;20211;-71
2021/09/01 00:22:57;;;;;;;4.53;2.40;;;10.50;99.90;10.30;97141.00;;;;4964092;28;20242;-73
2021/09/01 00:25:46;;;;;;;2.60;1.87;;;10.50;99.90;10.20;97132.00;;;;4956799;28;20215;-73
2021/09/01 00:28:35;;;;;;;2.67;2.03;;;10.40;99.90;10.20;97136.00;;;;4965824;28;20390;-73
2021/09/01 00:31:24;;;;;;;4.23;2.33;;;10.40;99.90;10.20;97132.00;;;;4968159;28;20223;-73
2021/09/01 00:34:15;;;;;;;4.13;2.20;;;10.40;99.90;10.20;97134.00;;;;4966624;28;20203;-72
2021/09/01 00:37:06;;;;;;;3.63;2.80;;;10.30;99.90;10.10;97150.00;;;;4967638;28;20241;-72
2021/09/01 00:39:55;;;;;;;2.23;2.03;;;10.30;99.90;10.20;97150.00;;;;4966319;28;20231;-72
2021/09/01 00:42:44;;;;;;;3.33;1.97;;;10.30;99.90;10.10;97153.00;;;;4967524;28;20231;-72
2021/09/01 00:45:34;;;;;;;1.87;1.63;;;10.20;99.90;10.00;97144.00;;;;4966941;28;20222;-72
2021/09/01 00:48:25;;;;;;;2.93;2.00;;;10.20;99.90;10.00;97148.00;;;;4961410;28;20195;-72
2021/09/01 00:51:16;;;;;;;5.27;2.57;;;10.20;99.90;9.90;97150.00;;;;4961711;28;20702;-72
2021/09/01 00:54:06;;;;;;;2.50;2.20;;;10.10;99.90;10.00;97140.00;;;;4966803;28;20267;-72
2021/09/01 00:56:57;;;;;;;2.83;1.80;;;10.10;99.90;9.80;97139.00;;;;4955426;28;20702;-71
2021/09/01 00:59:47;;;;;;;6.90;2.10;;;10.00;99.90;9.80;97133.00;;;;4965877;28;20227;-71
2021/09/01 01:02:36;;;;;;;2.20;2.00;;;10.00;99.90;9.70;97143.00;;;;4966537;28;20615;-71
2021/09/01 01:05:25;;;;;;;4.50;2.00;;;10.00;99.90;9.80;97151.00;;;;4967019;28;20262;-71
2021/09/01 01:08:15;;;;;;;2.10;1.90;;;9.90;99.90;9.70;97156.00;;;;4955236;28;20210;-71
2021/09/01 01:11:04;;;;;;;3.27;2.20;;;9.90;99.90;9.70;97153.00;;;;4957539;28;20206;-72
2021/09/01 01:13:53;;;;;;;4.83;2.53;;;9.90;99.90;9.80;97166.00;;;;4965863;28;20207;-70
2021/09/01 01:16:42;;;;;;;5.03;2.33;;;9.90;99.90;9.80;97165.00;;;;4967177;28;20199;-71
2021/09/01 01:19:31;;;;;;;2.27;2.07;;;9.90;99.90;9.80;97163.00;;;;4967275;28;20584;-72
2021/09/01 01:22:25;;;;;;;2.40;1.90;;;9.90;99.90;9.90;97165.00;;;;4966741;28;20223;-71
2021/09/01 01:25:35;;;;;;;2.90;2.03;;;9.90;99.90;9.80;97174.00;;;;4966510;28;20683;-72
2021/09/01 01:28:24;;;;;;;2.50;2.27;;;9.90;99.90;9.80;97161.00;;;;4966001;28;20195;-72
2021/09/01 01:31:13;;;;;;;2.50;2.30;;;10.00;99.90;9.80;97165.00;;;;4967049;28;20226;-72
2021/09/01 01:34:02;;;;;;;2.40;1.90;;;10.00;99.90;10.00;97167.00;;;;4966650;28;20214;-71
2021/09/01 01:36:51;;;;;;;2.20;2.00;;;10.00;99.90;10.00;97167.00;;;;4965979;28;20222;-72
2021/09/01 01:39:40;;;;;;;4.43;2.57;;;10.10;99.90;10.00;97181.00;;;;4965448;28;20893;-71
2021/09/01 01:42:30;;;;;;;3.63;2.80;;;10.10;99.90;10.00;97171.00;;;;4965943;28;20757;-72
2021/09/01 01:45:19;;;;;;;2.40;2.20;;;10.10;99.90;9.60;97168.00;;;;4966509;28;20226;-72
2021/09/01 01:48:11;;;;;;;2.57;2.10;;;10.10;99.90;9.90;97183.00;;;;4953521;28;20600;-72
2021/09/01 01:51:00;;;;;;;2.57;2.37;;;10.10;99.90;9.90;97166.00;;;;4961473;28;20211;-72
2021/09/01 01:53:57;;;;;;;2.43;2.23;;;10.00;99.90;9.90;97167.00;;;;4966104;28;20922;-71
2021/09/01 01:56:46;;;;;;;2.67;2.47;;;10.00;99.90;9.60;97171.00;;;;4958072;28;20770;-72
2021/09/01 01:59:36;;;;;;;3.27;2.43;;;10.00;99.90;9.60;97173.00;;;;4964912;28;20231;-71
2021/09/01 02:02:30;;;;;;;3.87;2.57;;;9.90;99.90;9.40;97176.00;;;;4965585;28;20223;-72
2021/09/01 02:05:19;;;;;;;2.80;2.17;;;9.80;99.90;8.90;97180.00;;;;4965717;28;20269;-72
2021/09/01 02:08:08;;;;;;;4.37;2.40;;;9.70;99.90;9.50;97177.00;;;;4954422;28;20211;-72
2021/09/01 02:10:57;;;;;;;2.37;1.97;;;9.70;99.90;9.70;97170.00;;;;4965890;28;20210;-71
2021/09/01 02:13:46;;;;;;;2.50;2.30;;;9.70;99.90;9.90;97167.00;;;;4966995;28;20211;-70
2021/09/01 02:16:36;;;;;;;2.53;2.33;;;9.80;99.90;9.90;97170.00;;;;4969497;28;20389;-71
2021/09/01 02:19:25;;;;;;;5.63;1.87;;;9.90;99.90;9.60;97169.00;;;;4969212;28;20219;-70
2021/09/01 02:22:14;;;;;;;5.87;3.13;;;9.90;99.90;9.60;97164.00;;;;4970245;28;20233;-72
2021/09/01 02:25:04;;;;;;;2.87;1.83;;;9.90;99.90;9.60;97165.00;;;;4968495;28;20203;-71
2021/09/01 02:27:54;;;;;;;3.57;1.90;;;9.80;99.90;9.60;97169.00;;;;4968551;28;20203;-70
2021/09/01 02:30:43;;;;;;;2.00;1.87;;;9.80;99.90;9.60;97180.00;;;;4969521;28;20239;-71
2021/09/01 02:33:33;;;;;;;2.23;2.03;;;9.80;99.90;9.40;97174.00;;;;4969120;28;20215;-71
2021/09/01 02:36:22;;;;;;;1.87;1.57;;;9.70;99.90;9.30;97172.00;;;;4969499;28;20734;-72
2021/09/01 02:39:12;;;;;;;3.63;3.33;;;9.70;99.90;9.40;97185.00;;;;4968072;28;20688;-71
2021/09/01 02:42:01;;;;;;;2.37;2.13;;;9.60;99.90;9.40;97174.00;;;;4968201;28;20231;-71
2021/09/01 02:44:50;;;;;;;3.00;2.17;;;10.50;99.90;9.40;97180.00;;;;4968905;28;20234;-71
2021/09/01 02:47:40;;;;;;;1.60;1.50;;;9.60;99.90;9.50;97180.00;;;;4960183;28;20208;-71
2021/09/01 02:50:31;;;;;;;1.93;1.83;;;10.60;99.90;9.40;97164.00;;;;4964833;28;20210;-72
2021/09/01 02:53:20;;;;;;;1.73;1.63;;;9.60;99.90;9.40;97164.00;;;;4958132;28;20686;-72
2021/09/01 02:56:10;;;;;;;3.30;2.10;;;9.60;99.90;9.50;97171.00;;;;4969191;28;20292;-72
2021/09/01 02:58:59;;;;;;;2.13;1.90;;;9.60;99.90;9.40;97169.00;;;;4967604;28;20206;-71
2021/09/01 03:01:48;;;;;;;2.40;2.20;;;9.60;99.90;9.30;97165.00;;;;4958641;28;20227;-72
2021/09/01 03:04:37;;;;;;;2.10;1.90;;;9.60;99.90;9.30;97162.00;;;;4968369;28;20214;-71
2021/09/01 03:07:27;;;;;;;2.90;2.13;;;9.50;99.90;9.30;97163.00;;;;4969286;28;20230;-72
2021/09/01 03:10:16;;;;;;;2.13;1.93;;;9.50;99.90;9.30;97158.00;;;;4958230;28;20552;-72
2021/09/01 03:13:05;;;;;;;2.17;2.00;;;9.50;99.90;9.40;97146.00;;;;4968757;28;20617;-71
2021/09/01 03:15:54;;;;;;;3.03;2.40;;;9.50;99.90;9.30;97144.00;;;;4968953;28;20219;-71
2021/09/01 03:18:43;;;;;;;1.87;1.73;;;9.50;99.90;9.20;97139.00;;;;4966886;28;20565;-72
2021/09/01 03:21:32;;;;;;;2.33;1.73;;;9.40;99.90;9.30;97148.00;;;;4968951;28;20235;-71
2021/09/01 03:24:22;;;;;;;3.50;1.93;;;9.40;99.90;9.30;97144.00;;;;4967983;28;20215;-72
2021/09/01 03:27:11;;;;;;;3.87;1.87;;;9.40;99.90;9.40;97135.00;;;;4968455;28;20234;-72
2021/09/01 03:30:00;;;;;;;1.73;1.63;;;9.40;99.90;9.20;97140.00;;;;4957955;28;20207;-72
2021/09/01 03:32:49;;;;;;;2.27;2.00;;;9.50;99.90;9.30;97147.00;;;;4969242;28;20227;-72
2021/09/01 03:35:38;;;;;;;1.63;1.53;;;9.50;99.90;9.40;97136.00;;;;4969247;28;20212;-70
2021/09/01 03:38:27;;;;;;;1.63;1.53;;;9.50;99.90;9.40;97134.00;;;;4968409;28;20291;-71
2021/09/01 03:41:17;;;;;;;1.97;1.70;;;9.50;99.90;9.50;97139.00;;;;4969004;28;20608;-71
2021/09/01 03:44:06;;;;;;;2.00;1.60;;;9.60;99.90;9.60;97148.00;;;;4968146;28;20226;-70
2021/09/01 03:46:55;;;;;;;3.00;2.70;;;9.60;99.90;9.60;97145.00;;;;4967296;28;20212;-71
2021/09/01 03:49:44;;;;;;;1.67;1.43;;;9.60;99.90;9.50;97152.00;;;;4955252;28;20218;-71
2021/09/01 03:52:33;;;;;;;4.87;1.83;;;9.60;99.90;9.60;97156.00;;;;4967370;28;20227;-71
2021/09/01 03:55:22;;;;;;;1.53;1.43;;;9.70;99.90;9.30;97163.00;;;;4957187;28;20234;-71
2021/09/01 03:58:12;;;;;;;2.03;1.63;;;9.60;99.90;9.30;97162.00;;;;4966044;28;20407;-72
2021/09/01 04:01:01;;;;;;;3.37;2.17;;;9.60;99.90;9.40;97171.00;;;;4966468;28;20231;-71
2021/09/01 04:03:50;;;;;;;2.43;1.73;;;9.50;99.90;9.60;97163.00;;;;4968754;28;20267;-71
2021/09/01 04:06:39;;;;;;;5.50;2.23;;;9.60;99.90;9.50;97170.00;;;;4967993;28;20212;-72
2021/09/01 04:09:28;;;;;;;3.53;2.00;;;9.60;99.90;9.50;97170.00;;;;4967038;28;20203;-72
2021/09/01 04:12:17;;;;;;;3.23;2.20;;;9.60;99.90;9.40;97171.00;;;;4969195;28;20235;-72
2021/09/01 04:15:09;;;;;;;1.73;1.60;;;9.50;99.90;9.50;97166.00;;;;4969365;28;20211;-72
2021/09/01 04:17:58;;;;;;;1.60;1.50;;;9.60;99.90;9.60;97158.00;;;;4967723;28;20230;-72
2021/09/01 04:20:47;;;;;;;5.67;2.07;;;9.60;99.90;9.50;97163.00;;;;4968309;28;20707;-71
2021/09/01 04:23:36;;;;;;;3.33;1.97;;;9.70;99.90;9.50;97153.00;;;;4957692;28;20203;-72
2021/09/01 04:26:25;;;;;;;2.00;1.60;;;9.60;99.90;9.60;97156.00;;;;4968747;28;20207;-72
2021/09/01 04:29:14;;;;;;;1.70;1.47;;;9.70;99.90;9.70;97147.00;;;;4967610;28;20208;-72
2021/09/01 04:32:05;;;;;;;2.83;1.63;;;9.70;99.90;9.70;97157.00;;;;4961448;28;20687;-72
2021/09/01 04:34:54;;;;;;;1.90;1.70;;;9.70;99.90;9.90;97146.00;;;;4967128;28;20217;-71
2021/09/01 04:37:43;;;;;;;1.57;1.47;;;9.80;99.90;9.90;97145.00;;;;4966741;28;20210;-72
2021/09/01 04:40:32;;;;;;;2.40;1.93;;;9.80;99.90;9.80;97163.00;;;;4964003;28;20698;-71
2021/09/01 04:43:21;;;;;;;4.20;1.80;;;9.90;99.90;9.90;97157.00;;;;4956766;28;20219;-72
2021/09/01 04:46:10;;;;;;;2.07;1.77;;;9.90;99.90;10.00;97165.00;;;;4949257;28;20208;-71
2021/09/01 04:49:00;;;;;;;2.00;1.80;;;9.90;99.90;10.00;97180.00;;;;4948445;28;20680;-72
2021/09/01 04:51:49;;;;;;;3.50;1.47;;;10.00;99.90;10.10;97185.00;;;;4958401;28;20222;-72
2021/09/01 04:54:40;;;;;;;1.53;1.43;;;10.00;99.90;10.20;97175.00;;;;4967738;28;20210;-72
2021/09/01 04:57:29;;;;;;;1.87;1.73;;;10.10;99.90;10.40;97181.00;;;;4966913;28;20215;-72
2021/09/01 05:00:18;;;;;;;3.53;1.83;;;10.20;99.90;10.40;97173.00;;;;4967541;28;20234;-72
2021/09/01 05:03:07;;;;;;;1.87;1.77;;;10.30;99.90;10.50;97172.00;;;;4968037;28;20691;-71
2021/09/01 05:05:58;;;;;;;3.23;2.30;;;10.60;99.90;10.50;97179.00;;;;4966472;28;20259;-71
2021/09/01 05:08:46;;;;;;;2.20;2.00;;;10.40;99.90;10.60;97190.00;;;;4967022;28;20210;-72
2021/09/01 05:11:35;;;;;;;2.30;2.07;;;10.40;99.90;10.70;97184.00;;;;4967986;28;20277;-72
2021/09/01 05:14:24;;;;;;;5.53;2.83;;;10.50;99.90;10.70;97184.00;;;;4966897;28;20211;-72
2021/09/01 05:17:13;;;;;;;2.03;1.83;;;10.50;99.90;10.60;97190.00;;;;4967392;28;20203;-72
2021/09/01 05:20:02;;;;;;;2.63;2.43;;;10.60;99.90;10.50;97183.00;;;;4967676;28;20210;-71
2021/09/01 05:23:00;;;;;;;2.00;1.70;;;10.60;99.90;10.80;97198.00;;;;4967826;28;20230;-72
2021/09/01 05:25:58;;;;;;;7.27;2.57;;;10.70;99.90;11.00;97185.00;;;;4966935;28;20590;-71
2021/09/01 05:28:49;;;;;;;2.47;2.13;;;10.80;99.90;11.00;97197.00;;;;4952073;28;20433;-72
2021/09/01 05:31:39;;;;;;;6.17;2.17;;;10.80;99.90;11.10;97182.00;;;;4959826;28;20318;-72
2021/09/01 05:34:28;;;;;;;1.70;1.60;;;10.90;99.90;11.30;97192.00;;;;4966071;28;20203;-72
2021/09/01 05:37:17;;;;;;;3.10;2.27;;;11.00;99.90;11.50;97192.00;;;;4962575;28;20551;-72
2021/09/01 05:40:10;;;;;;;2.57;2.23;;;11.20;99.90;11.60;97194.00;;;;4958141;28;20203;-72
2021/09/01 05:43:00;;;;;;;2.83;2.40;;;12.00;99.90;11.70;97187.00;;;;4967010;28;20231;-72
2021/09/01 05:45:51;;;;;;;4.13;2.50;;;11.40;99.90;11.80;97186.00;;;;4966337;28;20215;-72
2021/09/01 05:48:40;;;;;;;2.67;2.43;;;11.50;99.90;11.90;97188.00;;;;4957304;28;20203;-72
2021/09/01 05:51:30;;;;;;;3.07;2.20;;;11.60;99.90;12.10;97196.00;;;;4967656;28;20228;-72
2021/09/01 05:54:19;;;;;;;2.00;1.83;;;11.70;99.90;12.20;97203.00;;;;4964676;28;20208;-72
2021/09/01 05:57:12;;;;;;;3.93;2.13;;;11.90;99.90;12.10;97199.00;;;;4958245;28;20612;-71
2021/09/01 06:00:08;;;;;;;2.10;1.90;;;12.00;99.90;12.10;97195.00;;;;4967320;28;20218;-72
2021/09/01 06:03:05;;;;;;;2.60;2.20;;;12.00;99.90;12.30;97199.00;;;;4960847;28;20226;-72
2021/09/01 06:05:57;;;;;;;1.57;1.47;;;12.10;99.90;12.60;97195.00;;;;4966485;28;20290;-72
2021/09/01 06:08:47;;;;;;;1.93;1.50;;;12.20;99.90;12.80;97191.00;;;;4969563;28;20206;-71
2021/09/01 06:11:41;;;;;;;2.57;1.60;;;12.40;99.90;13.20;97195.00;;;;4962890;28;20234;-72
2021/09/01 06:14:31;;;;;;;1.97;1.40;;;12.60;99.90;13.30;97201.00;;;;4969747;28;20683;-72
2021/09/01 06:17:20;;;;;;;2.10;1.47;;;12.80;99.90;13.40;97197.00;;;;4963128;28;20222;-71
2021/09/01 06:20:10;;;;;;;2.00;1.90;;;12.90;99.90;13.40;97197.00;;;;4962992;28;20207;-71
2021/09/01 06:23:01;;;;;;;1.50;1.33;;;13.10;99.90;13.50;97207.00;;;;4968676;28;20227;-71
2021/09/01 06:25:50;;;;;;;2.03;1.87;;;13.10;99.90;13.60;97214.00;;;;4969106;28;20215;-72
2021/09/01 06:28:39;;;;;;;3.57;1.90;;;13.30;99.90;13.70;97221.00;;;;4957207;28;20208;-70
2021/09/01 06:31:35;;;;;;;1.73;1.37;;;13.40;99.90;13.90;97209.00;;;;4968412;28;20227;-70
2021/09/01 06:34:24;;;;;;;3.03;1.40;;;13.50;99.90;14.30;97217.00;;;;4961580;28;20670;-73
2021/09/01 06:37:12;;;;;;;4.17;1.87;;;13.70;99.90;14.40;97220.00;;;;4967400;28;20211;-72
2021/09/01 06:40:01;;;;;;;2.40;1.57;;;13.90;99.90;14.50;97218.00;;;;4966297;28;20223;-72
2021/09/01 06:42:50;;;;;;;2.20;2.00;;;14.10;99.90;14.70;97233.00;;;;4963683;28;20223;-73
2021/09/01 06:45:40;;;;;;;2.90;2.20;;;14.20;99.90;14.90;97227.00;;;;4944349;29;20212;-72
2021/09/01 06:48:31;;;;;;;4.03;2.37;;;14.40;99.90;15.20;97237.00;;;;4942570;29;20213;-71
2021/09/01 06:51:20;;;;;;;3.27;2.50;;;14.50;99.90;15.40;97240.00;;;;4947627;29;20235;-72
2021/09/01 06:54:11;;;;;;;3.33;2.83;;;14.70;99.90;15.40;97255.00;;;;4936835;28;20205;-72
2021/09/01 06:57:00;;;;;;;3.00;2.70;;;14.90;99.90;16.00;97259.00;;;;4947087;29;20585;-73
2021/09/01 06:59:49;;;;;;;3.73;2.97;;;15.10;99.90;16.50;97241.00;;;;4938350;29;20325;-73
2021/09/01 07:02:38;;;;;;;4.70;2.77;;;15.40;99.90;16.50;97244.00;;;;4947961;28;20247;-73
2021/09/01 07:05:31;;;;;;;3.30;2.63;;;15.70;99.90;16.70;97254.00;;;;4950261;29;20200;-73
2021/09/01 07:08:23;;;;;;;2.80;2.43;;;15.90;99.90;17.00;97242.00;;;;4949975;29;20212;-73
2021/09/01 07:11:11;;;;;;;3.10;2.47;;;16.10;99.90;17.00;97260.00;;;;4950998;29;20220;-73
2021/09/01 07:14:00;;;;;;;3.47;3.10;;;16.30;99.90;17.10;97271.00;;;;4951204;28;20203;-72
2021/09/01 07:16:49;;;;;;;5.37;2.23;;;16.50;99.90;17.40;97263.00;;;;4950989;29;20208;-73
2021/09/01 07:19:38;;;;;;;3.67;2.67;;;16.60;99.90;17.50;97273.00;;;;4944970;28;20587;-72
2021/09/01 07:22:29;;;;;;;3.63;2.47;;;16.80;99.90;17.80;97271.00;;;;4941284;29;20526;-73
2021/09/01 07:25:18;;;;;;;3.67;2.70;;;17.00;99.90;17.80;97272.00;;;;4946875;29;20587;-72
2021/09/01 07:28:07;;;;;;;2.60;2.40;;;17.20;99.20;18.00;97268.00;;;;4945085;29;20695;-72
2021/09/01 07:30:57;;;;;;;2.50;2.30;;;17.30;97.90;18.00;97271.00;;;;4942368;29;20205;-71
2021/09/01 07:33:46;;;;;;;10.03;2.63;;;17.40;95.40;18.10;97286.00;;;;4936143;28;20704;-73
2021/09/01 07:36:35;;;;;;;4.57;2.70;;;17.60;94.50;18.10;97281.00;;;;4939020;28;20702;-72
2021/09/01 07:39:25;;;;;;;2.90;2.40;;;17.60;93.20;17.80;97304.00;;;;4943347;29;20212;-71
2021/09/01 07:42:14;;;;;;;2.33;2.00;;;17.60;89.60;17.80;97286.00;;;;4937568;29;20236;-71
2021/09/01 08:40:53;;;;;;;2.93;2.47;;;18.40;78.00;18.80;97366.00;;;;5750356;23;20242;-84
2021/09/01 08:43:42;;;;;;;3.37;2.30;;;18.40;79.10;19.30;97372.00;;;;5008305;28;20223;-84
2021/09/01 08:46:32;;;;;;;2.40;2.13;;;18.70;79.80;19.20;97369.00;;;;5007176;28;20286;-88
2021/09/01 08:49:21;;;;;;;6.47;2.83;;;18.70;77.60;19.20;97391.00;;;;5008012;28;20217;-86
2021/09/01 08:52:10;;;;;;;5.57;2.73;;;18.80;77.10;19.20;97386.00;;;;4988720;28;20203;-85
2021/09/01 08:54:59;;;;;;;3.90;2.60;;;17.70;75.90;19.00;97383.00;;;;4972266;28;20698;-86
2021/09/01 08:57:55;;;;;;;3.33;3.03;;;18.80;74.00;19.00;97384.00;;;;4970900;28;20233;-86
2021/09/01 09:01:05;;;;;;;2.40;2.17;;;18.80;73.60;19.30;97357.00;;;;4969849;28;20707;-85
2021/09/01 09:03:56;;;;;;;3.33;2.83;;;18.80;75.90;19.70;97379.00;;;;4973359;28;20271;-85
2021/09/01 09:06:47;;;;;;;4.20;2.50;;;19.00;77.00;19.40;97381.00;;;;4974696;28;20203;-84
2021/09/01 09:09:39;;;;;;;3.53;2.47;;;19.10;72.80;19.20;97392.00;;;;4973428;28;20212;-84
2021/09/01 09:12:32;;;;;;;9.53;3.27;;;19.10;72.50;19.80;97362.00;;;;4975179;28;20219;-85
2021/09/01 09:15:23;;;;;;;8.23;3.00;;;19.20;74.40;20.20;97370.00;;;;4976139;28;20695;-84
2021/09/01 09:18:30;;;;;;;2.50;2.10;;;19.40;72.40;19.70;97372.00;;;;4977318;28;20214;-85
2021/09/01 09:21:22;;;;;;;2.30;1.87;;;19.50;70.20;19.40;97391.00;;;;4974423;28;20223;-84
2021/09/01 09:24:22;;;;;;;2.73;2.53;;;19.40;70.10;19.30;97387.00;;;;4975699;28;20199;-84
2021/09/01 09:27:11;;;;;;;3.47;2.20;;;19.20;69.00;19.70;97394.00;;;;4984225;28;20537;-86
2021/09/01 09:30:00;;;;;;;3.67;2.43;;;19.30;70.80;19.80;97395.00;;;;4975859;28;20231;-86
2021/09/01 09:32:59;;;;;;;3.03;2.67;;;19.30;71.50;19.40;97396.00;;;;4977463;28;20766;-85
2021/09/01 09:35:58;;;;;;;2.73;2.53;;;19.30;69.10;19.40;97391.00;;;;4974044;28;20238;-85
2021/09/01 09:38:47;;;;;;;4.47;2.13;;;19.30;70.00;19.50;97383.00;;;;4974199;28;20215;-85
2021/09/01 09:41:36;;;;;;;2.80;2.40;;;19.30;68.00;19.40;97384.00;;;;4972672;28;20329;-83
2021/09/01 09:44:28;;;;;;;3.00;2.20;;;19.20;69.80;20.00;97354.00;;;;4970519;28;20244;-84
2021/09/01 09:47:17;;;;;;;3.40;2.10;;;19.40;68.20;20.70;97404.00;;;;4974261;28;20592;-86
2021/09/01 09:50:11;;;;;;;3.03;2.33;;;19.70;70.00;20.30;97397.00;;;;4968696;28;20227;-85
2021/09/01 09:53:00;;;;;;;2.67;2.23;;;19.80;69.10;20.20;97386.00;;;;4973565;28;20214;-85
2021/09/01 09:56:11;;;;;;;2.53;2.07;;;19.80;65.70;20.60;97401.00;;;;4974949;28;20213;-86
2021/09/01 09:59:00;;;;;;;3.60;2.37;;;19.90;68.10;20.50;97366.00;;;;4975582;28;20218;-85
2021/09/01 10:01:50;;;;;;;3.40;2.20;;;20.10;65.20;21.10;97364.00;;;;4974217;28;20241;-85
2021/09/01 10:04:39;;;;;;;2.53;2.33;;;20.30;66.40;22.50;97380.00;;;;4973774;28;20215;-84
2021/09/01 10:07:30;;;;;;;2.60;1.77;;;20.80;68.40;22.60;97382.00;;;;4971920;28;20700;-86
2021/09/01 10:10:19;;;;;;;3.63;2.23;;;21.30;66.40;21.60;97371.00;;;;4973344;28;20249;-84
2021/09/01 10:13:15;;;;;;;4.50;2.43;;;21.40;62.50;21.80;97386.00;;;;4969736;28;20210;-85
2021/09/01 10:16:17;;;;;;;2.27;2.03;;;21.50;61.70;23.20;97393.00;;;;4966204;28;20207;-84
2021/09/01 10:19:13;;;;;;;2.43;1.87;;;21.90;65.90;21.60;97409.00;;;;4969718;28;20195;-83
2021/09/01 10:22:05;;;;;;;3.43;2.17;;;21.80;59.80;21.50;97357.00;;;;4960496;28;20211;-85
2021/09/01 10:24:56;;;;;;;3.07;2.20;;;21.70;60.30;22.20;97405.00;;;;4968561;28;20223;-84
2021/09/01 10:27:45;;;;;;;4.20;3.23;;;21.70;60.40;21.90;97398.00;;;;4968116;28;20215;-84
2021/09/01 10:30:33;;;;;;;4.73;2.97;;;21.70;62.20;22.10;97427.00;;;;4967065;28;20219;-84
2021/09/01 10:33:35;;;;;;;2.17;1.83;;;21.70;61.50;22.00;97411.00;;;;4968270;28;20214;-84
2021/09/01 10:36:51;;;;;;;3.37;2.60;;;21.70;61.80;20.50;97399.00;;;;4972139;28;20207;-85
2021/09/01 10:39:40;;;;;;;2.17;1.97;;;21.40;57.40;21.60;97368.00;;;;4970230;28;20215;-85
2021/09/01 10:42:39;;;;;;;4.23;2.27;;;21.40;58.20;22.50;97398.00;;;;4970840;28;20241;-83
2021/09/01 10:45:55;;;;;;;2.80;2.13;;;21.60;60.90;22.70;97408.00;;;;4975546;28;20738;-82
2021/09/01 10:48:59;;;;;;;2.53;2.33;;;21.80;61.30;21.90;97403.00;;;;4963314;28;20720;-83
2021/09/01 10:51:50;;;;;;;2.47;2.27;;;21.80;60.50;21.60;97407.00;;;;4963921;28;20226;-83
2021/09/01 10:54:41;;;;;;;2.77;1.90;;;21.60;61.20;21.40;97409.00;;;;4973940;28;20215;-85
2021/09/01 10:57:30;;;;;;;4.87;2.43;;;21.60;59.10;22.30;97418.00;;;;4972046;28;20211;-85
2021/09/01 11:00:20;;;;;;;2.77;2.20;;;21.60;59.90;20.90;97363.00;;;;4971756;28;20238;-84
2021/09/01 11:03:09;;;;;;;2.83;2.40;;;21.50;60.30;22.10;97417.00;;;;4964168;28;20236;-86
2021/09/01 11:06:15;;;;;;;2.93;1.90;;;21.70;59.60;22.50;97415.00;;;;4963579;28;20262;-85
2021/09/01 11:09:11;;;;;;;2.70;2.30;;;21.80;61.90;23.10;97437.00;;;;4971596;28;20218;-84
2021/09/01 11:12:02;;;;;;;2.77;2.23;;;22.10;61.90;22.90;97386.00;;;;4971589;28;20211;-84
2021/09/01 11:14:52;;;;;;;2.73;2.13;;;22.30;61.00;23.50;97392.00;;;;4970363;28;20207;-85
2021/09/01 11:17:42;;;;;;;3.50;2.57;;;22.50;62.10;23.20;97432.00;;;;4969932;28;20195;-82
2021/09/01 11:20:31;;;;;;;3.70;2.80;;;22.50;63.10;23.40;97429.00;;;;4970391;28;20220;-84
2021/09/01 11:23:26;;;;;;;3.37;2.50;;;22.70;62.90;22.80;97436.00;;;;4971161;28;20314;-83
2021/09/01 11:26:15;;;;;;;3.30;2.30;;;22.60;61.80;23.10;97432.00;;;;4971206;28;20211;-82
2021/09/01 11:29:07;;;;;;;2.80;2.33;;;22.60;62.20;23.10;97440.00;;;;4971505;28;20210;-83
2021/09/01 11:31:55;;;;;;;4.00;2.80;;;22.60;61.80;24.70;97440.00;;;;4970571;28;20207;-82
2021/09/01 11:34:47;;;;;;;3.60;2.30;;;22.90;63.10;23.00;97375.00;;;;4970633;28;20239;-83
2021/09/01 11:37:36;;;;;;;4.07;2.80;;;23.00;60.50;23.30;97364.00;;;;4970709;28;20204;-83
2021/09/01 11:40:32;;;;;;;3.80;3.10;;;23.40;59.20;25.30;97363.00;;;;4976416;28;20235;-82
2021/09/01 11:43:22;;;;;;;2.57;2.33;;;23.70;61.60;24.70;97431.00;;;;4968112;28;20216;-83
2021/09/01 11:46:10;;;;;;;2.37;2.13;;;24.00;58.00;22.90;97449.00;;;;4969626;28;20209;-83
2021/09/01 11:49:11;;;;;;;2.93;2.50;;;23.70;56.50;23.00;97449.00;;;;4970522;28;20283;-82
2021/09/01 11:52:01;;;;;;;4.33;2.43;;;23.30;57.90;22.60;97441.00;;;;4970988;28;20695;-83
2021/09/01 11:54:49;;;;;;;2.57;2.20;;;23.00;58.30;22.40;97452.00;;;;4970147;28;20233;-81
2021/09/01 11:57:38;;;;;;;2.50;2.27;;;22.70;58.90;22.70;97373.00;;;;4969061;28;20489;-86
2021/09/01 12:00:27;;;;;;;3.17;2.70;;;22.50;59.40;23.30;97451.00;;;;4970641;28;20231;-84
2021/09/01 12:03:18;;;;;;;3.03;2.30;;;22.60;59.70;23.40;97449.00;;;;4971093;28;20319;-85
2021/09/01 12:06:08;;;;;;;4.47;2.87;;;22.70;60.30;23.50;97456.00;;;;4970636;28;20215;-85
2021/09/01 12:08:58;;;;;;;3.77;2.77;;;22.80;60.30;23.20;97454.00;;;;4970556;28;20610;-85
2021/09/01 12:11:52;;;;;;;3.97;2.87;;;22.80;60.10;23.50;97453.00;;;;4971282;28;20617;-85
2021/09/01 12:14:41;;;;;;;4.70;2.70;;;22.80;59.60;23.90;97447.00;;;;4973138;28;20235;-85
2021/09/01 12:17:30;;;;;;;2.77;2.40;;;22.90;59.70;23.80;97413.00;;;;4973885;28;20786;-83
2021/09/01 12:20:20;;;;;;;5.20;2.80;;;23.10;60.30;24.20;97459.00;;;;4971623;28;20223;-86
2021/09/01 12:23:18;;;;;;;2.87;2.27;;;23.30;57.40;23.90;97456.00;;;;4972579;28;20204;-85
2021/09/01 12:26:09;;;;;;;3.60;2.37;;;23.30;57.40;22.50;97455.00;;;;4965610;28;20591;-85
2021/09/01 12:28:58;;;;;;;3.10;2.77;;;23.10;57.30;22.50;97425.00;;;;4970315;28;20207;-85
2021/09/01 12:31:52;;;;;;;3.07;2.23;;;22.70;57.10;22.60;97381.00;;;;4971549;28;20228;-85
2021/09/01 12:34:44;;;;;;;2.67;2.20;;;22.80;56.90;25.00;97384.00;;;;4968336;28;20239;-85
2021/09/01 12:37:36;;;;;;;2.60;2.40;;;23.40;56.70;24.80;97365.00;;;;4971695;28;20699;-81
2021/09/01 12:40:29;;;;;;;3.13;2.83;;;23.70;56.70;24.10;97383.00;;;;4963285;28;20237;-82
2021/09/01 12:43:20;;;;;;;3.37;2.40;;;24.20;53.20;25.80;97444.00;;;;4973732;28;20212;-81
2021/09/01 12:46:09;;;;;;;3.70;2.70;;;24.40;54.10;24.90;97428.00;;;;4975219;28;20427;-82
2021/09/01 12:49:01;;;;;;;3.63;2.90;;;24.50;51.90;26.60;97386.00;;;;4971870;28;20198;-86
2021/09/01 12:51:50;;;;;;;3.87;2.80;;;24.80;54.40;28.00;97385.00;;;;4962587;28;20234;-80
2021/09/01 12:54:39;;;;;;;2.40;2.10;;;25.60;54.60;28.30;97388.00;;;;4970182;28;20242;-81
2021/09/01 12:57:28;;;;;;;3.00;2.30;;;26.20;53.80;27.60;97370.00;;;;4968170;28;20212;-81
2021/09/01 13:00:18;;;;;;;3.05;2.45;;;26.50;52.50;28.20;97390.00;;;;4969090;28;20225;-81
2021/09/01 13:03:09;;;;;;;3.70;2.47;;;26.80;51.70;27.10;97378.00;;;;4960770;28;20221;-86
2021/09/01 13:06:01;;;;;;;3.15;2.55;;;27.00;49.20;26.40;97366.00;;;;4967052;28;20217;-86
2021/09/01 13:08:54;;;;;;;3.40;2.78;;;26.90;49.10;27.20;97376.00;;;;4971106;28;20244;-87
2021/09/01 13:11:43;;;;;;;3.47;2.80;;;26.80;49.90;24.40;97460.00;;;;4962970;28;20227;-84
2021/09/01 13:14:32;;;;;;;3.63;2.92;;;26.30;47.10;26.80;97391.00;;;;4965502;28;20229;-83
2021/09/01 13:17:22;;;;;;;4.17;2.90;;;26.20;49.50;26.30;97380.00;;;;4968645;28;20218;-84
2021/09/01 13:20:12;;;;;;;5.35;2.80;;;26.20;49.20;24.70;97376.00;;;;4969305;28;20248;-83
2021/09/01 13:23:01;;;;;;;4.00;2.73;;;26.00;48.80;26.10;97410.00;;;;4961953;28;20220;-83
2021/09/01 13:25:50;;;;;;;2.63;2.20;;;25.70;48.80;25.70;97394.00;;;;4985583;28;20209;-83
2021/09/01 13:28:39;;;;;;;3.50;2.47;;;25.80;49.40;26.00;97385.00;;;;4984382;28;20207;-84
2021/09/01 13:31:28;;;;;;;4.50;2.27;;;25.80;49.40;27.10;97462.00;;;;4971860;28;20247;-84
2021/09/01 13:34:18;;;;;;;2.50;2.20;;;26.20;49.90;25.20;97378.00;;;;4972500;28;20939;-83
2021/09/01 13:37:07;;;;;;;4.53;2.90;;;26.20;48.10;26.70;97398.00;;;;4972772;28;20288;-84